Terminal Aerodrome Forecast
Issued by NWS

Home | Current Version | Previous Version | Text Only | Print | Product List | Glossary On
Versions: 1 2 3 4 5 6 7 8 9 10 11 12 13 14 15 16 17 18 19 20 21 22 23 24 25 26 27 28 29 30 31 32 33 34 35 36 37 38 39 40 41 42 43 44 45 46
319
FTUS46 KEKA 202327
TAFCEC
TAF
KCEC 202327Z 2100/2124 21007KT P6SM SCT025 BKN200
      TEMPO 2103/2106 6SM BR BKN004 BKN025
     FM210600 16005KT 2SM BR OVC004
     FM211500 18006KT 6SM BR BKN006
     FM211900 19007KT 6SM -RA BR SCT006 BKN012=

USA.gov is the U.S. government's official web portal to all federal, state and local government web resources and services.